Aérodrome :
LOGIN :

S'inscrire | Disclaimer

   EN    FR    IT 

 










Légende :    VFR   VFR Marginal   IFR   IFR Intensif   IFR Très Intensif
Visi : 
Plafond : 
>= 8 km
>= 3000ft
5 à 8 km
1000 à 3000 ft
1500m à 5 km
500 à 1000 ft
800 à 1500m
200 à 500 ft
< 800m
< 200 ft
Symboles :   Orages  Brouillard  Fortes neiges  Fortes précipitations  Vent > 20 kt
SIGMETs :   Divers  Orages  Givrage  Turbulence  Onde Orograph.  Cendres Volcan.







- Altitude de l'aérodrome : 33 ft
- Code IATA : MHZ


EGUN - RAF Mildenhall

DERNIER METAR :
  • 220656Z AUTO 00000KT 9000 BR CLR 07/07 A2980 RMK AO2 SLP095 T00730073 $

METARs EXPIRÉS :
  • 220556Z AUTO 00000KT 8000 BR CLR 04/04 A2981 RMK AO2 SLP098 T00410041 10076 20028 57016 .
  • 220456Z AUTO 00000KT 9000 BR CLR 03/03 A2982 RMK AO2 SLP101 T00310031 .

TAF TAF EGUN
Valide du 22 à 07h jusqu'au 23 à 10h UTC


220700Z 2207/2310 10009KT 9999 SKC QNH2958INS
TEMPO 2210/2218 10012G20KT
BECMG 2218/2219 10009KT 9999 SCT080 QNH2955INS
BECMG 2223/2224 VRB06KT 5000 BR SCT010 QNH2950INS
BECMG 2307/2308 10012G20KT 9999 NSW SKC QNH2950INS TX22/2212Z TN04/2304Z LAST NO AMDS AFT 2210 NEXT 2304
Pas de NOTAMs connus pour ce terrain.



MET'MAP, la Météo Aéronautique d'un coup d'oeil ! - Copyright ORBIFLY Décembre 2007 - Disclaimer

ORBIFLY MET'MAP TEAM :

Programmation & Développement : Alexandra Zaïnal
Conception & Développement : Baudouin d'Aumeries
Co-Programmation & Développement : Marc-Olivier Méhu
Soutien technique & logistique : Manuel Goepfert

Contact : metmap@orbifly.com




SOURCES & CREDITS :

   NOAA